sensor_id;sensor_type;location;lat;lon;timestamp;temperature;humidity
69634;DHT22;56860;51.144;16.954;2024-02-26T00:00:14;4.7;44.3
69634;DHT22;56860;51.144;16.954;2024-02-26T00:01:14;4.7;44.1
69634;DHT22;56860;51.144;16.954;2024-02-26T00:02:14;4.7;44.1
69634;DHT22;56860;51.144;16.954;2024-02-26T00:03:14;4.7;44.2
69634;DHT22;56860;51.144;16.954;2024-02-26T00:04:14;4.7;44.1
69634;DHT22;56860;51.144;16.954;2024-02-26T00:05:14;4.7;44.4
69634;DHT22;56860;51.144;16.954;2024-02-26T00:06:14;4.7;45.1
69634;DHT22;56860;51.144;16.954;2024-02-26T00:07:14;4.7;45.4
69634;DHT22;56860;51.144;16.954;2024-02-26T00:08:14;4.7;45.4
69634;DHT22;56860;51.144;16.954;2024-02-26T00:09:14;4.7;45.8
69634;DHT22;56860;51.144;16.954;2024-02-26T00:10:14;4.7;46.0
69634;DHT22;56860;51.144;16.954;2024-02-26T00:11:14;4.7;46.0
69634;DHT22;56860;51.144;16.954;2024-02-26T00:12:14;4.7;45.8
69634;DHT22;56860;51.144;16.954;2024-02-26T00:13:14;4.7;45.6
69634;DHT22;56860;51.144;16.954;2024-02-26T00:14:14;4.7;44.9
69634;DHT22;56860;51.144;16.954;2024-02-26T00:15:14;4.7;45.2
69634;DHT22;56860;51.144;16.954;2024-02-26T00:16:15;4.7;44.9
69634;DHT22;56860;51.144;16.954;2024-02-26T00:17:14;4.6;44.6
69634;DHT22;56860;51.144;16.954;2024-02-26T00:18:14;4.4;44.8
69634;DHT22;56860;51.144;16.954;2024-02-26T00:19:14;4.4;45.2
69634;DHT22;56860;51.144;16.954;2024-02-26T00:20:14;4.3;45.5
69634;DHT22;56860;51.144;16.954;2024-02-26T00:21:14;4.3;45.8
69634;DHT22;56860;51.144;16.954;2024-02-26T00:22:14;4.3;46.0
69634;DHT22;56860;51.144;16.954;2024-02-26T00:23:14;4.3;46.2
69634;DHT22;56860;51.144;16.954;2024-02-26T00:24:14;4.3;46.2
69634;DHT22;56860;51.144;16.954;2024-02-26T00:25:14;4.3;45.6
69634;DHT22;56860;51.144;16.954;2024-02-26T00:26:14;4.3;45.6
69634;DHT22;56860;51.144;16.954;2024-02-26T00:27:14;4.4;45.6
69634;DHT22;56860;51.144;16.954;2024-02-26T00:28:14;4.4;45.1
69634;DHT22;56860;51.144;16.954;2024-02-26T00:29:14;4.4;45.7
69634;DHT22;56860;51.144;16.954;2024-02-26T00:30:14;4.4;45.8
69634;DHT22;56860;51.144;16.954;2024-02-26T00:31:14;4.4;45.8
69634;DHT22;56860;51.144;16.954;2024-02-26T00:32:14;4.4;45.8
69634;DHT22;56860;51.144;16.954;2024-02-26T00:33:16;4.4;45.6
69634;DHT22;56860;51.144;16.954;2024-02-26T00:34:14;4.4;45.6
69634;DHT22;56860;51.144;16.954;2024-02-26T00:35:14;4.3;46.0
69634;DHT22;56860;51.144;16.954;2024-02-26T00:36:14;4.3;46.5
69634;DHT22;56860;51.144;16.954;2024-02-26T00:37:14;4.2;46.8
69634;DHT22;56860;51.144;16.954;2024-02-26T00:38:14;4.2;46.8
69634;DHT22;56860;51.144;16.954;2024-02-26T00:39:14;4.1;47.1
69634;DHT22;56860;51.144;16.954;2024-02-26T00:40:14;4.1;47.2
69634;DHT22;56860;51.144;16.954;2024-02-26T00:41:14;4.1;47.5
69634;DHT22;56860;51.144;16.954;2024-02-26T00:42:14;4.1;48.1
69634;DHT22;56860;51.144;16.954;2024-02-26T00:43:14;4.1;48.2
69634;DHT22;56860;51.144;16.954;2024-02-26T00:44:14;4.1;48.2
69634;DHT22;56860;51.144;16.954;2024-02-26T00:45:14;4.2;48.2
69634;DHT22;56860;51.144;16.954;2024-02-26T00:46:14;4.2;47.7
69634;DHT22;56860;51.144;16.954;2024-02-26T00:47:14;4.2;47.5
69634;DHT22;56860;51.144;16.954;2024-02-26T00:48:14;4.2;47.9
69634;DHT22;56860;51.144;16.954;2024-02-26T00:49:14;4.2;47.6
69634;DHT22;56860;51.144;16.954;2024-02-26T00:50:15;4.3;47.5
69634;DHT22;56860;51.144;16.954;2024-02-26T00:51:14;4.3;47.6
69634;DHT22;56860;51.144;16.954;2024-02-26T00:52:15;4.3;47.4
69634;DHT22;56860;51.144;16.954;2024-02-26T00:53:14;4.3;47.5
69634;DHT22;56860;51.144;16.954;2024-02-26T00:54:14;4.3;47.4
69634;DHT22;56860;51.144;16.954;2024-02-26T00:55:14;4.2;47.5
69634;DHT22;56860;51.144;16.954;2024-02-26T00:56:14;4.1;47.5
69634;DHT22;56860;51.144;16.954;2024-02-26T00:57:14;4.1;47.8
69634;DHT22;56860;51.144;16.954;2024-02-26T00:58:14;4.0;47.9
69634;DHT22;56860;51.144;16.954;2024-02-26T00:59:14;3.9;48.4
69634;DHT22;56860;51.144;16.954;2024-02-26T01:00:15;3.8;48.9
69634;DHT22;56860;51.144;16.954;2024-02-26T01:01:14;3.8;49.6
69634;DHT22;56860;51.144;16.954;2024-02-26T01:02:14;3.8;49.8
69634;DHT22;56860;51.144;16.954;2024-02-26T01:03:14;3.8;49.6
69634;DHT22;56860;51.144;16.954;2024-02-26T01:04:14;3.9;49.2
69634;DHT22;56860;51.144;16.954;2024-02-26T01:05:14;3.9;48.5
69634;DHT22;56860;51.144;16.954;2024-02-26T01:06:14;3.8;48.0
69634;DHT22;56860;51.144;16.954;2024-02-26T01:07:14;3.8;47.2
69634;DHT22;56860;51.144;16.954;2024-02-26T01:08:14;3.8;47.8
69634;DHT22;56860;51.144;16.954;2024-02-26T01:09:14;3.8;47.9
69634;DHT22;56860;51.144;16.954;2024-02-26T01:10:14;3.7;48.3
69634;DHT22;56860;51.144;16.954;2024-02-26T01:11:14;3.7;48.2
69634;DHT22;56860;51.144;16.954;2024-02-26T01:12:14;3.7;48.0
69634;DHT22;56860;51.144;16.954;2024-02-26T01:13:14;3.6;48.2
69634;DHT22;56860;51.144;16.954;2024-02-26T01:14:14;3.6;48.0
69634;DHT22;56860;51.144;16.954;2024-02-26T01:15:14;3.6;48.1
69634;DHT22;56860;51.144;16.954;2024-02-26T01:16:14;3.6;47.8
69634;DHT22;56860;51.144;16.954;2024-02-26T01:17:14;3.6;47.6
69634;DHT22;56860;51.144;16.954;2024-02-26T01:18:14;3.6;47.1
69634;DHT22;56860;51.144;16.954;2024-02-26T01:19:14;3.6;46.8
69634;DHT22;56860;51.144;16.954;2024-02-26T01:20:14;3.5;46.6
69634;DHT22;56860;51.144;16.954;2024-02-26T01:21:14;3.5;46.7
69634;DHT22;56860;51.144;16.954;2024-02-26T01:22:14;3.5;47.1
69634;DHT22;56860;51.144;16.954;2024-02-26T01:23:14;3.5;47.2
69634;DHT22;56860;51.144;16.954;2024-02-26T01:24:14;3.5;47.2
69634;DHT22;56860;51.144;16.954;2024-02-26T01:25:14;3.5;46.9
69634;DHT22;56860;51.144;16.954;2024-02-26T01:26:14;3.6;47.1
69634;DHT22;56860;51.144;16.954;2024-02-26T01:27:14;3.5;46.9
69634;DHT22;56860;51.144;16.954;2024-02-26T01:28:14;3.5;46.7
69634;DHT22;56860;51.144;16.954;2024-02-26T01:29:14;3.4;47.0
69634;DHT22;56860;51.144;16.954;2024-02-26T01:30:14;3.4;47.4
69634;DHT22;56860;51.144;16.954;2024-02-26T01:31:14;3.4;47.6
69634;DHT22;56860;51.144;16.954;2024-02-26T01:32:14;3.5;47.6
69634;DHT22;56860;51.144;16.954;2024-02-26T01:33:14;3.4;47.5
69634;DHT22;56860;51.144;16.954;2024-02-26T01:34:14;3.4;47.5
69634;DHT22;56860;51.144;16.954;2024-02-26T01:35:14;3.3;47.7
69634;DHT22;56860;51.144;16.954;2024-02-26T01:36:14;3.2;48.2
69634;DHT22;56860;51.144;16.954;2024-02-26T01:37:14;3.3;48.2
69634;DHT22;56860;51.144;16.954;2024-02-26T01:38:14;3.3;48.6
69634;DHT22;56860;51.144;16.954;2024-02-26T01:39:14;3.4;48.9
69634;DHT22;56860;51.144;16.954;2024-02-26T01:40:15;3.4;49.0
69634;DHT22;56860;51.144;16.954;2024-02-26T01:41:14;3.4;48.7
69634;DHT22;56860;51.144;16.954;2024-02-26T01:42:14;3.3;48.8
69634;DHT22;56860;51.144;16.954;2024-02-26T01:43:15;3.3;48.9
69634;DHT22;56860;51.144;16.954;2024-02-26T01:44:15;3.3;49.3
69634;DHT22;56860;51.144;16.954;2024-02-26T01:45:15;3.3;49.5
69634;DHT22;56860;51.144;16.954;2024-02-26T01:46:14;3.3;49.5
69634;DHT22;56860;51.144;16.954;2024-02-26T01:47:14;3.2;49.3
69634;DHT22;56860;51.144;16.954;2024-02-26T01:48:14;3.3;49.7
69634;DHT22;56860;51.144;16.954;2024-02-26T01:49:14;3.2;49.5
69634;DHT22;56860;51.144;16.954;2024-02-26T01:50:14;3.2;49.6
69634;DHT22;56860;51.144;16.954;2024-02-26T01:51:14;3.3;49.7
69634;DHT22;56860;51.144;16.954;2024-02-26T01:52:14;3.4;49.7
69634;DHT22;56860;51.144;16.954;2024-02-26T01:53:14;3.4;49.2
69634;DHT22;56860;51.144;16.954;2024-02-26T01:54:15;3.4;49.0
69634;DHT22;56860;51.144;16.954;2024-02-26T01:55:14;3.4;48.7
69634;DHT22;56860;51.144;16.954;2024-02-26T01:56:14;3.4;48.7
69634;DHT22;56860;51.144;16.954;2024-02-26T01:57:15;3.4;48.7
69634;DHT22;56860;51.144;16.954;2024-02-26T01:58:14;3.4;48.6
69634;DHT22;56860;51.144;16.954;2024-02-26T01:59:14;3.4;48.5
69634;DHT22;56860;51.144;16.954;2024-02-26T02:00:14;3.4;48.2
69634;DHT22;56860;51.144;16.954;2024-02-26T02:01:15;3.4;48.1
69634;DHT22;56860;51.144;16.954;2024-02-26T02:02:14;3.4;48.0
69634;DHT22;56860;51.144;16.954;2024-02-26T02:03:14;3.5;47.9
69634;DHT22;56860;51.144;16.954;2024-02-26T02:04:14;3.5;47.7
69634;DHT22;56860;51.144;16.954;2024-02-26T02:05:15;3.5;47.5
69634;DHT22;56860;51.144;16.954;2024-02-26T02:06:14;3.5;47.4
69634;DHT22;56860;51.144;16.954;2024-02-26T02:07:14;3.6;47.5
69634;DHT22;56860;51.144;16.954;2024-02-26T02:10:18;3.6;47.4
69634;DHT22;56860;51.144;16.954;2024-02-26T02:11:14;unavailable;unavailable
69634;DHT22;56860;51.144;16.954;2024-02-26T02:12:14;3.6;47.5
69634;DHT22;56860;51.144;16.954;2024-02-26T02:13:14;3.6;47.6
69634;DHT22;56860;51.144;16.954;2024-02-26T02:14:14;3.6;47.4
69634;DHT22;56860;51.144;16.954;2024-02-26T02:15:14;3.6;47.3
69634;DHT22;56860;51.144;16.954;2024-02-26T02:16:14;3.6;47.3
69634;DHT22;56860;51.144;16.954;2024-02-26T02:17:14;3.6;47.4
69634;DHT22;56860;51.144;16.954;2024-02-26T02:18:14;3.6;47.4
69634;DHT22;56860;51.144;16.954;2024-02-26T02:19:14;3.5;47.2
69634;DHT22;56860;51.144;16.954;2024-02-26T02:20:15;3.5;47.5
69634;DHT22;56860;51.144;16.954;2024-02-26T02:21:14;3.5;47.6
69634;DHT22;56860;51.144;16.954;2024-02-26T02:22:14;3.5;47.2
69634;DHT22;56860;51.144;16.954;2024-02-26T02:23:14;3.5;47.8
69634;DHT22;56860;51.144;16.954;2024-02-26T02:24:14;3.4;47.9
69634;DHT22;56860;51.144;16.954;2024-02-26T02:25:14;3.4;48.2
69634;DHT22;56860;51.144;16.954;2024-02-26T02:26:15;3.3;48.2
69634;DHT22;56860;51.144;16.954;2024-02-26T02:27:14;3.2;48.3
69634;DHT22;56860;51.144;16.954;2024-02-26T02:28:14;3.2;48.5
69634;DHT22;56860;51.144;16.954;2024-02-26T02:29:14;3.2;48.6
69634;DHT22;56860;51.144;16.954;2024-02-26T02:30:14;3.2;48.0
69634;DHT22;56860;51.144;16.954;2024-02-26T02:31:15;3.3;48.8
69634;DHT22;56860;51.144;16.954;2024-02-26T02:32:14;3.3;48.6
69634;DHT22;56860;51.144;16.954;2024-02-26T02:33:15;3.4;48.2
69634;DHT22;56860;51.144;16.954;2024-02-26T02:36:14;unavailable;unavailable
69634;DHT22;56860;51.144;16.954;2024-02-26T02:36:19;unavailable;unavailable
69634;DHT22;56860;51.144;16.954;2024-02-26T02:37:16;3.3;47.4
69634;DHT22;56860;51.144;16.954;2024-02-26T02:38:14;3.4;47.4
69634;DHT22;56860;51.144;16.954;2024-02-26T02:39:15;3.4;46.5
69634;DHT22;56860;51.144;16.954;2024-02-26T02:40:14;3.4;46.9
69634;DHT22;56860;51.144;16.954;2024-02-26T02:41:14;3.3;46.5
69634;DHT22;56860;51.144;16.954;2024-02-26T02:42:14;3.2;46.5
69634;DHT22;56860;51.144;16.954;2024-02-26T02:43:14;3.1;46.9
69634;DHT22;56860;51.144;16.954;2024-02-26T02:44:14;3.1;47.2
69634;DHT22;56860;51.144;16.954;2024-02-26T02:45:15;3.0;47.5
69634;DHT22;56860;51.144;16.954;2024-02-26T02:46:15;3.0;47.7
69634;DHT22;56860;51.144;16.954;2024-02-26T02:47:15;3.1;47.8
69634;DHT22;56860;51.144;16.954;2024-02-26T02:48:15;3.1;47.5
69634;DHT22;56860;51.144;16.954;2024-02-26T02:49:14;3.1;47.6
69634;DHT22;56860;51.144;16.954;2024-02-26T02:50:14;3.1;47.6
69634;DHT22;56860;51.144;16.954;2024-02-26T02:51:14;3.1;47.7
69634;DHT22;56860;51.144;16.954;2024-02-26T02:52:14;3.0;47.7
69634;DHT22;56860;51.144;16.954;2024-02-26T02:53:14;3.0;48.0
69634;DHT22;56860;51.144;16.954;2024-02-26T02:54:14;3.0;48.0
69634;DHT22;56860;51.144;16.954;2024-02-26T02:55:15;3.0;48.1
69634;DHT22;56860;51.144;16.954;2024-02-26T02:56:14;3.0;48.0
69634;DHT22;56860;51.144;16.954;2024-02-26T02:57:15;3.0;47.8
69634;DHT22;56860;51.144;16.954;2024-02-26T02:58:15;3.0;47.4
69634;DHT22;56860;51.144;16.954;2024-02-26T02:59:14;3.0;47.3
69634;DHT22;56860;51.144;16.954;2024-02-26T03:00:15;3.0;47.1
69634;DHT22;56860;51.144;16.954;2024-02-26T03:01:15;3.0;46.9
69634;DHT22;56860;51.144;16.954;2024-02-26T03:02:15;3.0;46.9
69634;DHT22;56860;51.144;16.954;2024-02-26T03:03:15;3.0;47.1
69634;DHT22;56860;51.144;16.954;2024-02-26T03:04:15;3.0;47.3
69634;DHT22;56860;51.144;16.954;2024-02-26T03:05:16;3.0;47.3
69634;DHT22;56860;51.144;16.954;2024-02-26T03:06:15;3.0;47.3
69634;DHT22;56860;51.144;16.954;2024-02-26T03:07:15;3.0;47.2
69634;DHT22;56860;51.144;16.954;2024-02-26T03:08:15;3.0;47.3
69634;DHT22;56860;51.144;16.954;2024-02-26T03:09:15;3.0;47.3
69634;DHT22;56860;51.144;16.954;2024-02-26T03:10:15;3.0;47.5
69634;DHT22;56860;51.144;16.954;2024-02-26T03:11:15;3.0;47.5
69634;DHT22;56860;51.144;16.954;2024-02-26T03:12:15;3.0;47.5
69634;DHT22;56860;51.144;16.954;2024-02-26T03:13:15;3.0;47.6
69634;DHT22;56860;51.144;16.954;2024-02-26T03:14:15;3.0;47.8
69634;DHT22;56860;51.144;16.954;2024-02-26T03:15:15;3.1;48.0
69634;DHT22;56860;51.144;16.954;2024-02-26T03:16:15;3.0;47.9
69634;DHT22;56860;51.144;16.954;2024-02-26T03:17:15;3.0;48.3
69634;DHT22;56860;51.144;16.954;2024-02-26T03:18:15;2.9;48.6
69634;DHT22;56860;51.144;16.954;2024-02-26T03:19:15;2.9;49.0
69634;DHT22;56860;51.144;16.954;2024-02-26T03:20:15;2.9;49.4
69634;DHT22;56860;51.144;16.954;2024-02-26T03:21:15;2.9;49.5
69634;DHT22;56860;51.144;16.954;2024-02-26T03:22:15;2.9;48.8
69634;DHT22;56860;51.144;16.954;2024-02-26T03:23:15;2.9;49.6
69634;DHT22;56860;51.144;16.954;2024-02-26T03:24:15;2.9;49.6
69634;DHT22;56860;51.144;16.954;2024-02-26T03:25:15;3.0;49.6
69634;DHT22;56860;51.144;16.954;2024-02-26T03:26:15;3.0;49.2
69634;DHT22;56860;51.144;16.954;2024-02-26T03:27:15;3.1;48.9
69634;DHT22;56860;51.144;16.954;2024-02-26T03:28:15;3.1;48.2
69634;DHT22;56860;51.144;16.954;2024-02-26T03:29:15;3.1;48.0
69634;DHT22;56860;51.144;16.954;2024-02-26T03:30:15;3.1;47.9
69634;DHT22;56860;51.144;16.954;2024-02-26T03:31:15;3.1;47.8
69634;DHT22;56860;51.144;16.954;2024-02-26T03:32:15;3.1;47.8
69634;DHT22;56860;51.144;16.954;2024-02-26T03:33:15;3.1;48.1
69634;DHT22;56860;51.144;16.954;2024-02-26T03:34:15;3.2;48.1
69634;DHT22;56860;51.144;16.954;2024-02-26T03:35:15;3.2;48.1
69634;DHT22;56860;51.144;16.954;2024-02-26T03:36:15;3.2;47.8
69634;DHT22;56860;51.144;16.954;2024-02-26T03:37:15;3.2;47.6
69634;DHT22;56860;51.144;16.954;2024-02-26T03:38:15;3.2;47.6
69634;DHT22;56860;51.144;16.954;2024-02-26T03:39:15;3.2;47.5
69634;DHT22;56860;51.144;16.954;2024-02-26T03:40:15;3.1;47.4
69634;DHT22;56860;51.144;16.954;2024-02-26T03:41:15;3.1;47.7
69634;DHT22;56860;51.144;16.954;2024-02-26T03:42:15;3.1;47.9
69634;DHT22;56860;51.144;16.954;2024-02-26T03:43:16;3.1;47.8
69634;DHT22;56860;51.144;16.954;2024-02-26T03:44:15;3.1;47.7
69634;DHT22;56860;51.144;16.954;2024-02-26T03:45:15;3.0;48.0
69634;DHT22;56860;51.144;16.954;2024-02-26T03:46:15;2.9;48.7
69634;DHT22;56860;51.144;16.954;2024-02-26T03:47:15;2.9;49.4
69634;DHT22;56860;51.144;16.954;2024-02-26T03:48:15;2.9;50.0
69634;DHT22;56860;51.144;16.954;2024-02-26T03:49:15;2.9;50.2
69634;DHT22;56860;51.144;16.954;2024-02-26T03:50:15;2.9;50.3
69634;DHT22;56860;51.144;16.954;2024-02-26T03:51:15;2.9;50.1
69634;DHT22;56860;51.144;16.954;2024-02-26T03:52:15;3.0;50.0
69634;DHT22;56860;51.144;16.954;2024-02-26T03:53:15;3.0;49.7
69634;DHT22;56860;51.144;16.954;2024-02-26T03:54:15;3.0;49.7
69634;DHT22;56860;51.144;16.954;2024-02-26T03:55:15;3.1;49.7
69634;DHT22;56860;51.144;16.954;2024-02-26T03:56:15;3.1;49.4
69634;DHT22;56860;51.144;16.954;2024-02-26T03:57:15;3.1;49.2
69634;DHT22;56860;51.144;16.954;2024-02-26T03:58:15;3.1;48.9
69634;DHT22;56860;51.144;16.954;2024-02-26T03:59:15;3.1;48.6
69634;DHT22;56860;51.144;16.954;2024-02-26T04:00:15;3.1;48.4
69634;DHT22;56860;51.144;16.954;2024-02-26T04:01:15;3.1;48.4
69634;DHT22;56860;51.144;16.954;2024-02-26T04:02:15;3.1;48.4
69634;DHT22;56860;51.144;16.954;2024-02-26T04:03:15;3.2;48.4
69634;DHT22;56860;51.144;16.954;2024-02-26T04:04:15;3.1;48.1
69634;DHT22;56860;51.144;16.954;2024-02-26T04:05:15;3.2;48.5
69634;DHT22;56860;51.144;16.954;2024-02-26T04:06:15;3.2;48.5
69634;DHT22;56860;51.144;16.954;2024-02-26T04:07:15;3.2;48.4
69634;DHT22;56860;51.144;16.954;2024-02-26T04:08:15;3.2;48.6
69634;DHT22;56860;51.144;16.954;2024-02-26T04:09:15;3.2;48.5
69634;DHT22;56860;51.144;16.954;2024-02-26T04:10:15;3.3;48.6
69634;DHT22;56860;51.144;16.954;2024-02-26T04:11:15;3.3;48.0
69634;DHT22;56860;51.144;16.954;2024-02-26T04:12:15;3.2;47.9
69634;DHT22;56860;51.144;16.954;2024-02-26T04:13:15;3.2;48.3
69634;DHT22;56860;51.144;16.954;2024-02-26T04:14:15;3.1;48.3
69634;DHT22;56860;51.144;16.954;2024-02-26T04:15:15;3.1;48.0
69634;DHT22;56860;51.144;16.954;2024-02-26T04:16:15;3.1;48.0
69634;DHT22;56860;51.144;16.954;2024-02-26T04:17:15;3.1;48.1
69634;DHT22;56860;51.144;16.954;2024-02-26T04:18:15;3.1;48.3
69634;DHT22;56860;51.144;16.954;2024-02-26T04:19:15;3.0;47.6
69634;DHT22;56860;51.144;16.954;2024-02-26T04:20:15;3.1;48.6
69634;DHT22;56860;51.144;16.954;2024-02-26T04:21:15;3.1;48.3
69634;DHT22;56860;51.144;16.954;2024-02-26T04:22:15;3.1;48.4
69634;DHT22;56860;51.144;16.954;2024-02-26T04:23:15;3.1;48.2
69634;DHT22;56860;51.144;16.954;2024-02-26T04:24:15;3.1;48.2
69634;DHT22;56860;51.144;16.954;2024-02-26T04:25:15;3.1;47.8
69634;DHT22;56860;51.144;16.954;2024-02-26T04:26:15;3.1;47.5
69634;DHT22;56860;51.144;16.954;2024-02-26T04:27:15;3.0;47.4
69634;DHT22;56860;51.144;16.954;2024-02-26T04:28:15;3.0;47.4
69634;DHT22;56860;51.144;16.954;2024-02-26T04:29:15;3.1;47.6
69634;DHT22;56860;51.144;16.954;2024-02-26T04:30:15;3.0;47.6
69634;DHT22;56860;51.144;16.954;2024-02-26T04:31:15;3.0;47.3
69634;DHT22;56860;51.144;16.954;2024-02-26T04:32:15;3.0;47.2
69634;DHT22;56860;51.144;16.954;2024-02-26T04:33:15;2.9;47.2
69634;DHT22;56860;51.144;16.954;2024-02-26T04:34:15;2.9;47.6
69634;DHT22;56860;51.144;16.954;2024-02-26T04:35:15;2.9;47.7
69634;DHT22;56860;51.144;16.954;2024-02-26T04:36:15;3.0;47.8
69634;DHT22;56860;51.144;16.954;2024-02-26T04:37:15;3.0;47.9
69634;DHT22;56860;51.144;16.954;2024-02-26T04:38:15;3.0;47.9
69634;DHT22;56860;51.144;16.954;2024-02-26T04:39:15;3.0;47.7
69634;DHT22;56860;51.144;16.954;2024-02-26T04:40:15;3.0;47.5
69634;DHT22;56860;51.144;16.954;2024-02-26T04:41:15;3.0;47.5
69634;DHT22;56860;51.144;16.954;2024-02-26T04:42:15;3.0;47.5
69634;DHT22;56860;51.144;16.954;2024-02-26T04:43:15;3.0;47.2
69634;DHT22;56860;51.144;16.954;2024-02-26T04:44:15;3.0;47.2
69634;DHT22;56860;51.144;16.954;2024-02-26T04:45:15;3.0;46.9
69634;DHT22;56860;51.144;16.954;2024-02-26T04:46:15;3.0;47.1
69634;DHT22;56860;51.144;16.954;2024-02-26T04:47:15;2.9;47.1
69634;DHT22;56860;51.144;16.954;2024-02-26T04:48:15;2.8;47.4
69634;DHT22;56860;51.144;16.954;2024-02-26T04:49:15;2.8;47.8
69634;DHT22;56860;51.144;16.954;2024-02-26T04:50:15;2.8;47.8
69634;DHT22;56860;51.144;16.954;2024-02-26T04:51:15;2.8;47.9
69634;DHT22;56860;51.144;16.954;2024-02-26T04:52:15;2.7;47.9
69634;DHT22;56860;51.144;16.954;2024-02-26T04:53:15;2.7;48.5
69634;DHT22;56860;51.144;16.954;2024-02-26T04:54:16;2.8;48.6
69634;DHT22;56860;51.144;16.954;2024-02-26T04:55:15;2.8;48.4
69634;DHT22;56860;51.144;16.954;2024-02-26T04:56:15;2.9;48.3
69634;DHT22;56860;51.144;16.954;2024-02-26T04:57:15;2.9;48.3
69634;DHT22;56860;51.144;16.954;2024-02-26T04:58:15;2.9;48.0
69634;DHT22;56860;51.144;16.954;2024-02-26T04:59:15;2.9;47.9
69634;DHT22;56860;51.144;16.954;2024-02-26T05:00:15;2.9;47.6
69634;DHT22;56860;51.144;16.954;2024-02-26T05:01:15;2.9;47.6
69634;DHT22;56860;51.144;16.954;2024-02-26T05:02:15;2.9;47.5
69634;DHT22;56860;51.144;16.954;2024-02-26T05:03:15;2.9;47.6
69634;DHT22;56860;51.144;16.954;2024-02-26T05:04:15;2.9;47.5
69634;DHT22;56860;51.144;16.954;2024-02-26T05:05:15;2.9;47.3
69634;DHT22;56860;51.144;16.954;2024-02-26T05:06:15;2.8;47.9
69634;DHT22;56860;51.144;16.954;2024-02-26T05:07:15;2.8;48.0
69634;DHT22;56860;51.144;16.954;2024-02-26T05:08:15;2.8;48.1
69634;DHT22;56860;51.144;16.954;2024-02-26T05:09:15;2.7;48.6
69634;DHT22;56860;51.144;16.954;2024-02-26T05:10:15;2.7;49.1
69634;DHT22;56860;51.144;16.954;2024-02-26T05:11:15;2.7;49.4
69634;DHT22;56860;51.144;16.954;2024-02-26T05:12:15;2.8;50.1
69634;DHT22;56860;51.144;16.954;2024-02-26T05:13:15;2.8;50.3
69634;DHT22;56860;51.144;16.954;2024-02-26T05:14:15;2.8;50.0
69634;DHT22;56860;51.144;16.954;2024-02-26T05:15:15;2.8;50.1
69634;DHT22;56860;51.144;16.954;2024-02-26T05:16:15;2.8;50.3
69634;DHT22;56860;51.144;16.954;2024-02-26T05:17:15;2.8;50.6
69634;DHT22;56860;51.144;16.954;2024-02-26T05:18:15;2.7;50.8
69634;DHT22;56860;51.144;16.954;2024-02-26T05:19:15;2.8;50.9
69634;DHT22;56860;51.144;16.954;2024-02-26T05:20:15;2.8;50.8
69634;DHT22;56860;51.144;16.954;2024-02-26T05:21:15;2.8;50.4
69634;DHT22;56860;51.144;16.954;2024-02-26T05:22:16;2.8;50.2
69634;DHT22;56860;51.144;16.954;2024-02-26T05:23:15;2.9;49.8
69634;DHT22;56860;51.144;16.954;2024-02-26T05:24:15;2.9;49.5
69634;DHT22;56860;51.144;16.954;2024-02-26T05:25:15;2.9;49.1
69634;DHT22;56860;51.144;16.954;2024-02-26T05:26:19;2.9;49.0
69634;DHT22;56860;51.144;16.954;2024-02-26T05:27:15;2.8;49.0
69634;DHT22;56860;51.144;16.954;2024-02-26T05:28:15;2.9;48.9
69634;DHT22;56860;51.144;16.954;2024-02-26T05:29:15;2.8;49.2
69634;DHT22;56860;51.144;16.954;2024-02-26T05:30:15;2.8;49.2
69634;DHT22;56860;51.144;16.954;2024-02-26T05:31:15;2.8;49.2
69634;DHT22;56860;51.144;16.954;2024-02-26T05:32:15;2.8;49.1
69634;DHT22;56860;51.144;16.954;2024-02-26T05:33:15;2.8;49.1
69634;DHT22;56860;51.144;16.954;2024-02-26T05:34:15;2.8;48.8
69634;DHT22;56860;51.144;16.954;2024-02-26T05:35:15;2.8;48.8
69634;DHT22;56860;51.144;16.954;2024-02-26T05:36:18;2.7;48.9
69634;DHT22;56860;51.144;16.954;2024-02-26T05:37:15;2.6;49.2
69634;DHT22;56860;51.144;16.954;2024-02-26T05:38:15;2.5;49.9
69634;DHT22;56860;51.144;16.954;2024-02-26T05:39:15;2.5;50.2
69634;DHT22;56860;51.144;16.954;2024-02-26T05:40:15;2.5;50.7
69634;DHT22;56860;51.144;16.954;2024-02-26T05:41:15;2.5;50.5
69634;DHT22;56860;51.144;16.954;2024-02-26T05:42:15;2.5;50.1
69634;DHT22;56860;51.144;16.954;2024-02-26T05:43:15;2.5;50.3
69634;DHT22;56860;51.144;16.954;2024-02-26T05:44:15;2.5;50.8
69634;DHT22;56860;51.144;16.954;2024-02-26T05:45:15;2.5;51.1
69634;DHT22;56860;51.144;16.954;2024-02-26T05:46:16;2.5;51.4
69634;DHT22;56860;51.144;16.954;2024-02-26T05:47:15;2.6;51.3
69634;DHT22;56860;51.144;16.954;2024-02-26T05:48:15;2.6;50.8
69634;DHT22;56860;51.144;16.954;2024-02-26T05:49:15;2.7;50.6
69634;DHT22;56860;51.144;16.954;2024-02-26T05:50:15;2.7;50.1
69634;DHT22;56860;51.144;16.954;2024-02-26T05:51:15;2.7;49.7
69634;DHT22;56860;51.144;16.954;2024-02-26T05:52:15;2.7;49.8
69634;DHT22;56860;51.144;16.954;2024-02-26T05:53:15;2.7;49.8
69634;DHT22;56860;51.144;16.954;2024-02-26T05:54:15;2.7;49.6
69634;DHT22;56860;51.144;16.954;2024-02-26T05:55:15;2.8;50.2
69634;DHT22;56860;51.144;16.954;2024-02-26T05:56:15;2.8;50.2
69634;DHT22;56860;51.144;16.954;2024-02-26T05:57:15;2.8;50.1
69634;DHT22;56860;51.144;16.954;2024-02-26T05:58:15;2.8;50.0
69634;DHT22;56860;51.144;16.954;2024-02-26T05:59:15;2.8;50.0
69634;DHT22;56860;51.144;16.954;2024-02-26T06:00:15;2.8;50.2
69634;DHT22;56860;51.144;16.954;2024-02-26T06:01:15;2.8;50.3
69634;DHT22;56860;51.144;16.954;2024-02-26T06:02:15;2.8;50.5
69634;DHT22;56860;51.144;16.954;2024-02-26T06:03:15;2.9;50.2
69634;DHT22;56860;51.144;16.954;2024-02-26T06:04:15;2.9;49.4
69634;DHT22;56860;51.144;16.954;2024-02-26T06:05:15;2.9;49.7
69634;DHT22;56860;51.144;16.954;2024-02-26T06:06:15;2.9;49.1
69634;DHT22;56860;51.144;16.954;2024-02-26T06:07:15;2.9;49.5
69634;DHT22;56860;51.144;16.954;2024-02-26T06:08:15;3.0;49.6
69634;DHT22;56860;51.144;16.954;2024-02-26T06:09:15;3.1;49.6
69634;DHT22;56860;51.144;16.954;2024-02-26T06:10:15;3.1;49.4
69634;DHT22;56860;51.144;16.954;2024-02-26T06:11:15;3.1;49.2
69634;DHT22;56860;51.144;16.954;2024-02-26T06:12:15;3.2;49.5
69634;DHT22;56860;51.144;16.954;2024-02-26T06:13:15;3.2;49.6
69634;DHT22;56860;51.144;16.954;2024-02-26T06:14:15;3.3;49.7
69634;DHT22;56860;51.144;16.954;2024-02-26T06:15:15;3.3;49.8
69634;DHT22;56860;51.144;16.954;2024-02-26T06:16:15;3.3;50.1
69634;DHT22;56860;51.144;16.954;2024-02-26T06:17:15;3.4;50.1
69634;DHT22;56860;51.144;16.954;2024-02-26T06:18:15;3.5;50.3
69634;DHT22;56860;51.144;16.954;2024-02-26T06:19:15;3.5;50.5
69634;DHT22;56860;51.144;16.954;2024-02-26T06:20:15;3.6;50.4
69634;DHT22;56860;51.144;16.954;2024-02-26T06:21:15;3.6;50.1
69634;DHT22;56860;51.144;16.954;2024-02-26T06:22:15;3.7;50.2
69634;DHT22;56860;51.144;16.954;2024-02-26T06:23:15;3.7;50.2
69634;DHT22;56860;51.144;16.954;2024-02-26T06:24:15;3.8;50.4
69634;DHT22;56860;51.144;16.954;2024-02-26T06:25:21;3.8;49.9
69634;DHT22;56860;51.144;16.954;2024-02-26T06:26:15;3.8;49.9
69634;DHT22;56860;51.144;16.954;2024-02-26T06:27:15;3.9;49.8
69634;DHT22;56860;51.144;16.954;2024-02-26T06:28:15;4.0;49.6
69634;DHT22;56860;51.144;16.954;2024-02-26T06:29:15;4.0;49.3
69634;DHT22;56860;51.144;16.954;2024-02-26T06:30:15;4.0;49.1
69634;DHT22;56860;51.144;16.954;2024-02-26T06:31:15;4.1;49.9
69634;DHT22;56860;51.144;16.954;2024-02-26T06:32:15;4.1;49.7
69634;DHT22;56860;51.144;16.954;2024-02-26T06:33:15;4.2;49.9